Airfield :
LOGIN :

Register | Disclaimer

   EN    FR    IT 

 










Legend :    VFR   Marginal VFR   IFR   Intensive IFR   Very Intensive IFR
Visi :
Ceiling :
>= 8 km
>= 3000ft
5 to 8 km
1000 to 3000 ft
1500m to 5 km
500 to 1000 ft
800 to 1500m
200 to 500 ft
< 800m
< 200 ft
Symbols :   Thunderstorms  Fog  Heavy snow  Heavy precipitations  Wind > 20 kt
SIGMETs :     Misc.  Thunderstorms  Icing  Turbulence  Mountain Waves  Volcanic Ashes






- Airport Elevation : 117 ft
- IATA code : NWI


EGSH - Norwich

CURRENT METAR :
  • 291050Z 20009KT 9000 -RA SCT027 10/09 Q1012 NOSIG

EXPIRED METARs :
  • 291020Z 21008KT 170V230 9000 -RA SCT027 10/08 Q1012
  • 290950Z 22009KT 9000 -RA FEW038 10/08 Q1012 NOSIG
  • 290920Z 22007KT 9999 -RA FEW038 10/07 Q1012 NOSIG
  • 290850Z 23007KT 9999 -RA NSC 09/07 Q1012 NOSIG
  • 290820Z 23007KT CAVOK 09/07 Q1012 NOSIG

TAF TAF EGSH
Valid from the 29 at 09:00 until the 29 at 18:00 UTC


290809Z 2909/2918 22008KT 9999 FEW030
TEMPO 2909/2915 6000 RA
PROB30
TEMPO 2910/2914 3000 +RA BKN004
PROB40
TEMPO 2915/2918 23018G28KT
PROB30
TEMPO 2915/2918 8000 -RA BKN014
ATIS : +44 1603 420 640



MET'MAP, your aeronautical weather chart ! - Copyright ORBIFLY December 2007 - Disclaimer

ORBIFLY MET'MAP TEAM :

Programming & Development : Alexandra Zaïnal
Concept & original design : Baudouin d'Aumeries
Assistance for programming : Marc-Olivier Méhu
Technical & hardware support : Manuel Goepfert

Contact : metmap@orbifly.com




SOURCES & CREDITS :

   NOAA